sensor_id;sensor_type;location;lat;lon;timestamp;P1;durP1;ratioP1;P2;durP2;ratioP2
15228;SDS011;7717;47.792;12.076;2022-12-05T00:01:19;7.67;;;5.90;;
15228;SDS011;7717;47.792;12.076;2022-12-05T00:04:02;8.53;;;6.20;;
15228;SDS011;7717;47.792;12.076;2022-12-05T00:06:30;7.47;;;6.27;;
15228;SDS011;7717;47.792;12.076;2022-12-05T00:08:56;8.67;;;6.70;;
15228;SDS011;7717;47.792;12.076;2022-12-05T00:11:24;8.43;;;6.43;;
15228;SDS011;7717;47.792;12.076;2022-12-05T00:13:52;8.80;;;6.37;;
15228;SDS011;7717;47.792;12.076;2022-12-05T00:16:20;8.57;;;6.10;;
15228;SDS011;7717;47.792;12.076;2022-12-05T00:18:47;6.80;;;6.10;;
15228;SDS011;7717;47.792;12.076;2022-12-05T00:21:14;7.67;;;6.10;;
15228;SDS011;7717;47.792;12.076;2022-12-05T00:23:42;9.03;;;6.10;;
15228;SDS011;7717;47.792;12.076;2022-12-05T00:26:08;8.77;;;6.43;;
15228;SDS011;7717;47.792;12.076;2022-12-05T00:28:34;9.17;;;7.07;;
15228;SDS011;7717;47.792;12.076;2022-12-05T00:31:07;7.00;;;6.00;;
15228;SDS011;7717;47.792;12.076;2022-12-05T00:33:35;9.33;;;6.57;;
15228;SDS011;7717;47.792;12.076;2022-12-05T00:36:01;9.07;;;6.40;;
15228;SDS011;7717;47.792;12.076;2022-12-05T00:38:28;9.03;;;6.60;;
15228;SDS011;7717;47.792;12.076;2022-12-05T00:40:53;7.30;;;5.80;;
15228;SDS011;7717;47.792;12.076;2022-12-05T00:43:19;10.10;;;7.10;;
15228;SDS011;7717;47.792;12.076;2022-12-05T00:45:44;7.90;;;5.90;;
15228;SDS011;7717;47.792;12.076;2022-12-05T00:48:09;8.93;;;6.63;;
15228;SDS011;7717;47.792;12.076;2022-12-05T00:50:35;8.97;;;6.13;;
15228;SDS011;7717;47.792;12.076;2022-12-05T00:53:00;9.20;;;6.10;;
15228;SDS011;7717;47.792;12.076;2022-12-05T00:55:25;10.03;;;6.93;;
15228;SDS011;7717;47.792;12.076;2022-12-05T00:57:51;8.43;;;6.70;;
15228;SDS011;7717;47.792;12.076;2022-12-05T01:00:16;10.47;;;6.93;;
15228;SDS011;7717;47.792;12.076;2022-12-05T01:02:42;10.87;;;7.20;;
15228;SDS011;7717;47.792;12.076;2022-12-05T01:05:07;12.20;;;7.17;;
15228;SDS011;7717;47.792;12.076;2022-12-05T01:07:33;10.37;;;7.10;;
15228;SDS011;7717;47.792;12.076;2022-12-05T01:09:58;11.27;;;7.77;;
15228;SDS011;7717;47.792;12.076;2022-12-05T01:12:23;11.60;;;7.37;;
15228;SDS011;7717;47.792;12.076;2022-12-05T01:14:49;12.57;;;7.57;;
15228;SDS011;7717;47.792;12.076;2022-12-05T01:17:14;11.37;;;7.53;;
15228;SDS011;7717;47.792;12.076;2022-12-05T01:19:40;15.03;;;8.33;;
15228;SDS011;7717;47.792;12.076;2022-12-05T01:22:05;11.37;;;7.87;;
15228;SDS011;7717;47.792;12.076;2022-12-05T01:24:30;11.50;;;7.13;;
15228;SDS011;7717;47.792;12.076;2022-12-05T01:26:56;10.47;;;7.60;;
15228;SDS011;7717;47.792;12.076;2022-12-05T01:29:22;12.23;;;7.93;;
15228;SDS011;7717;47.792;12.076;2022-12-05T01:31:48;12.50;;;7.63;;
15228;SDS011;7717;47.792;12.076;2022-12-05T01:34:15;15.63;;;8.33;;
15228;SDS011;7717;47.792;12.076;2022-12-05T01:36:41;13.83;;;8.33;;
15228;SDS011;7717;47.792;12.076;2022-12-05T01:39:08;15.13;;;7.93;;
15228;SDS011;7717;47.792;12.076;2022-12-05T01:41:36;22.80;;;8.43;;
15228;SDS011;7717;47.792;12.076;2022-12-05T01:44:05;13.47;;;9.17;;
15228;SDS011;7717;47.792;12.076;2022-12-05T01:46:35;20.57;;;8.80;;
15228;SDS011;7717;47.792;12.076;2022-12-05T01:49:06;17.53;;;8.67;;
15228;SDS011;7717;47.792;12.076;2022-12-05T01:51:33;13.00;;;8.20;;
15228;SDS011;7717;47.792;12.076;2022-12-05T01:54:00;11.07;;;7.70;;
15228;SDS011;7717;47.792;12.076;2022-12-05T01:56:26;14.50;;;8.87;;
15228;SDS011;7717;47.792;12.076;2022-12-05T01:58:52;11.13;;;7.13;;
15228;SDS011;7717;47.792;12.076;2022-12-05T02:01:19;14.97;;;8.03;;
15228;SDS011;7717;47.792;12.076;2022-12-05T02:03:45;12.70;;;8.30;;
15228;SDS011;7717;47.792;12.076;2022-12-05T02:06:15;12.83;;;7.37;;
15228;SDS011;7717;47.792;12.076;2022-12-05T02:08:42;13.30;;;7.87;;
15228;SDS011;7717;47.792;12.076;2022-12-05T02:11:08;14.50;;;8.03;;
15228;SDS011;7717;47.792;12.076;2022-12-05T02:22:05;11.87;;;7.43;;
15228;SDS011;7717;47.792;12.076;2022-12-05T02:27:27;13.87;;;8.40;;
15228;SDS011;7717;47.792;12.076;2022-12-05T02:30:03;12.53;;;7.80;;
15228;SDS011;7717;47.792;12.076;2022-12-05T02:32:40;12.30;;;7.57;;
15228;SDS011;7717;47.792;12.076;2022-12-05T02:41:12;11.23;;;7.50;;
15228;SDS011;7717;47.792;12.076;2022-12-05T02:43:39;10.00;;;6.63;;
15228;SDS011;7717;47.792;12.076;2022-12-05T02:46:12;9.70;;;6.60;;
15228;SDS011;7717;47.792;12.076;2022-12-05T02:48:43;11.43;;;7.43;;
15228;SDS011;7717;47.792;12.076;2022-12-05T02:51:10;8.77;;;5.93;;
15228;SDS011;7717;47.792;12.076;2022-12-05T02:53:41;10.97;;;7.23;;
15228;SDS011;7717;47.792;12.076;2022-12-05T02:56:08;10.43;;;6.97;;
15228;SDS011;7717;47.792;12.076;2022-12-05T02:58:35;11.27;;;7.73;;
15228;SDS011;7717;47.792;12.076;2022-12-05T03:01:05;11.83;;;7.77;;
15228;SDS011;7717;47.792;12.076;2022-12-05T03:03:31;10.77;;;7.30;;
15228;SDS011;7717;47.792;12.076;2022-12-05T03:06:05;11.47;;;7.77;;
15228;SDS011;7717;47.792;12.076;2022-12-05T03:08:42;17.73;;;7.90;;
15228;SDS011;7717;47.792;12.076;2022-12-05T03:11:11;10.70;;;6.77;;
15228;SDS011;7717;47.792;12.076;2022-12-05T03:13:38;12.80;;;7.50;;
15228;SDS011;7717;47.792;12.076;2022-12-05T03:16:13;9.70;;;6.13;;
15228;SDS011;7717;47.792;12.076;2022-12-05T03:18:54;11.37;;;5.93;;
15228;SDS011;7717;47.792;12.076;2022-12-05T03:24:05;6.47;;;5.67;;
15228;SDS011;7717;47.792;12.076;2022-12-05T03:26:49;9.57;;;6.13;;
15228;SDS011;7717;47.792;12.076;2022-12-05T03:29:28;7.00;;;5.13;;
15228;SDS011;7717;47.792;12.076;2022-12-05T03:34:41;8.00;;;6.00;;
15228;SDS011;7717;47.792;12.076;2022-12-05T03:37:13;8.53;;;5.40;;
15228;SDS011;7717;47.792;12.076;2022-12-05T03:40:02;4.87;;;3.57;;
15228;SDS011;7717;47.792;12.076;2022-12-05T03:42:32;6.37;;;4.63;;
15228;SDS011;7717;47.792;12.076;2022-12-05T03:45:08;6.53;;;5.27;;
15228;SDS011;7717;47.792;12.076;2022-12-05T03:47:50;5.53;;;4.93;;
15228;SDS011;7717;47.792;12.076;2022-12-05T03:50:21;7.77;;;5.20;;
15228;SDS011;7717;47.792;12.076;2022-12-05T03:52:54;6.60;;;4.93;;
15228;SDS011;7717;47.792;12.076;2022-12-05T03:55:24;6.00;;;4.87;;
15228;SDS011;7717;47.792;12.076;2022-12-05T03:57:54;5.30;;;4.77;;
15228;SDS011;7717;47.792;12.076;2022-12-05T04:00:25;6.53;;;5.27;;
15228;SDS011;7717;47.792;12.076;2022-12-05T04:02:59;5.87;;;4.80;;
15228;SDS011;7717;47.792;12.076;2022-12-05T04:08:28;6.03;;;4.80;;
15228;SDS011;7717;47.792;12.076;2022-12-05T04:11:02;5.90;;;4.47;;
15228;SDS011;7717;47.792;12.076;2022-12-05T04:13:32;6.77;;;5.10;;
15228;SDS011;7717;47.792;12.076;2022-12-05T04:16:06;6.47;;;5.10;;
15228;SDS011;7717;47.792;12.076;2022-12-05T04:19:18;5.20;;;4.67;;
15228;SDS011;7717;47.792;12.076;2022-12-05T04:21:50;8.93;;;5.20;;
15228;SDS011;7717;47.792;12.076;2022-12-05T04:24:19;7.67;;;5.27;;
15228;SDS011;7717;47.792;12.076;2022-12-05T04:27:27;6.77;;;4.60;;
15228;SDS011;7717;47.792;12.076;2022-12-05T04:30:09;7.73;;;4.93;;
15228;SDS011;7717;47.792;12.076;2022-12-05T04:35:40;6.20;;;4.80;;
15228;SDS011;7717;47.792;12.076;2022-12-05T04:41:00;5.83;;;4.70;;
15228;SDS011;7717;47.792;12.076;2022-12-05T04:43:28;6.03;;;4.63;;
15228;SDS011;7717;47.792;12.076;2022-12-05T04:45:56;5.43;;;4.47;;
15228;SDS011;7717;47.792;12.076;2022-12-05T04:48:24;5.73;;;4.37;;
15228;SDS011;7717;47.792;12.076;2022-12-05T04:50:52;6.40;;;4.87;;
15228;SDS011;7717;47.792;12.076;2022-12-05T04:53:19;7.37;;;5.03;;
15228;SDS011;7717;47.792;12.076;2022-12-05T04:55:49;4.80;;;4.37;;
15228;SDS011;7717;47.792;12.076;2022-12-05T04:58:23;6.13;;;4.90;;
15228;SDS011;7717;47.792;12.076;2022-12-05T05:03:42;5.50;;;4.83;;
15228;SDS011;7717;47.792;12.076;2022-12-05T05:06:13;6.17;;;5.43;;
15228;SDS011;7717;47.792;12.076;2022-12-05T05:08:53;8.47;;;5.70;;
15228;SDS011;7717;47.792;12.076;2022-12-05T05:11:22;8.97;;;6.33;;
15228;SDS011;7717;47.792;12.076;2022-12-05T05:13:49;8.70;;;6.70;;
15228;SDS011;7717;47.792;12.076;2022-12-05T05:16:16;9.83;;;6.67;;
15228;SDS011;7717;47.792;12.076;2022-12-05T05:18:47;9.33;;;7.00;;
15228;SDS011;7717;47.792;12.076;2022-12-05T05:21:35;8.87;;;5.80;;
15228;SDS011;7717;47.792;12.076;2022-12-05T05:24:01;6.47;;;5.77;;
15228;SDS011;7717;47.792;12.076;2022-12-05T05:26:28;7.97;;;6.10;;
15228;SDS011;7717;47.792;12.076;2022-12-05T05:28:55;19.07;;;12.67;;
15228;SDS011;7717;47.792;12.076;2022-12-05T05:31:22;11.67;;;8.33;;
15228;SDS011;7717;47.792;12.076;2022-12-05T05:33:48;17.23;;;10.63;;
15228;SDS011;7717;47.792;12.076;2022-12-05T05:36:14;10.63;;;8.07;;
15228;SDS011;7717;47.792;12.076;2022-12-05T05:38:41;11.53;;;7.37;;
15228;SDS011;7717;47.792;12.076;2022-12-05T05:41:17;7.70;;;6.33;;
15228;SDS011;7717;47.792;12.076;2022-12-05T05:43:46;9.10;;;6.67;;
15228;SDS011;7717;47.792;12.076;2022-12-05T05:46:12;7.73;;;6.40;;
15228;SDS011;7717;47.792;12.076;2022-12-05T05:48:38;7.23;;;5.67;;
15228;SDS011;7717;47.792;12.076;2022-12-05T05:51:05;28.47;;;15.17;;
15228;SDS011;7717;47.792;12.076;2022-12-05T05:53:32;31.37;;;17.47;;
15228;SDS011;7717;47.792;12.076;2022-12-05T05:56:00;19.07;;;11.33;;
15228;SDS011;7717;47.792;12.076;2022-12-05T05:58:30;17.07;;;10.93;;
15228;SDS011;7717;47.792;12.076;2022-12-05T06:01:01;16.67;;;10.17;;
15228;SDS011;7717;47.792;12.076;2022-12-05T06:03:32;20.97;;;14.07;;
15228;SDS011;7717;47.792;12.076;2022-12-05T06:05:58;9.17;;;7.43;;
15228;SDS011;7717;47.792;12.076;2022-12-05T06:08:25;15.90;;;10.67;;
15228;SDS011;7717;47.792;12.076;2022-12-05T06:10:56;12.40;;;9.50;;
15228;SDS011;7717;47.792;12.076;2022-12-05T06:13:22;12.93;;;9.27;;
15228;SDS011;7717;47.792;12.076;2022-12-05T06:15:47;7.87;;;6.07;;
15228;SDS011;7717;47.792;12.076;2022-12-05T06:18:13;8.33;;;6.67;;
15228;SDS011;7717;47.792;12.076;2022-12-05T06:20:38;7.67;;;6.37;;
15228;SDS011;7717;47.792;12.076;2022-12-05T06:23:03;6.83;;;5.63;;
15228;SDS011;7717;47.792;12.076;2022-12-05T06:25:29;8.90;;;7.00;;
15228;SDS011;7717;47.792;12.076;2022-12-05T06:27:54;11.20;;;6.87;;
15228;SDS011;7717;47.792;12.076;2022-12-05T06:30:23;10.07;;;7.30;;
15228;SDS011;7717;47.792;12.076;2022-12-05T06:32:48;9.90;;;6.37;;
15228;SDS011;7717;47.792;12.076;2022-12-05T06:35:14;9.73;;;7.60;;
15228;SDS011;7717;47.792;12.076;2022-12-05T06:37:42;9.97;;;6.73;;
15228;SDS011;7717;47.792;12.076;2022-12-05T06:40:09;8.13;;;6.43;;
15228;SDS011;7717;47.792;12.076;2022-12-05T06:42:36;6.83;;;5.97;;
15228;SDS011;7717;47.792;12.076;2022-12-05T06:45:02;7.07;;;5.47;;
15228;SDS011;7717;47.792;12.076;2022-12-05T06:47:28;6.20;;;5.57;;
15228;SDS011;7717;47.792;12.076;2022-12-05T06:49:53;6.93;;;5.60;;
15228;SDS011;7717;47.792;12.076;2022-12-05T06:52:19;7.20;;;5.07;;
15228;SDS011;7717;47.792;12.076;2022-12-05T06:54:44;5.93;;;5.03;;
15228;SDS011;7717;47.792;12.076;2022-12-05T06:57:10;5.87;;;5.27;;
15228;SDS011;7717;47.792;12.076;2022-12-05T06:59:36;5.80;;;5.03;;
15228;SDS011;7717;47.792;12.076;2022-12-05T07:02:02;6.03;;;5.37;;
15228;SDS011;7717;47.792;12.076;2022-12-05T07:04:27;5.73;;;5.10;;
15228;SDS011;7717;47.792;12.076;2022-12-05T07:06:53;7.90;;;5.33;;
15228;SDS011;7717;47.792;12.076;2022-12-05T07:09:20;5.30;;;4.63;;
15228;SDS011;7717;47.792;12.076;2022-12-05T07:12:07;6.33;;;5.60;;
15228;SDS011;7717;47.792;12.076;2022-12-05T07:14:33;6.57;;;5.30;;
15228;SDS011;7717;47.792;12.076;2022-12-05T07:16:58;7.47;;;5.50;;
15228;SDS011;7717;47.792;12.076;2022-12-05T07:19:24;7.63;;;5.73;;
15228;SDS011;7717;47.792;12.076;2022-12-05T07:21:49;7.43;;;6.30;;
15228;SDS011;7717;47.792;12.076;2022-12-05T07:24:14;7.60;;;6.50;;
15228;SDS011;7717;47.792;12.076;2022-12-05T07:26:40;6.30;;;5.60;;
15228;SDS011;7717;47.792;12.076;2022-12-05T07:29:05;8.27;;;6.40;;
15228;SDS011;7717;47.792;12.076;2022-12-05T07:31:30;10.37;;;6.90;;
15228;SDS011;7717;47.792;12.076;2022-12-05T07:33:57;8.20;;;6.17;;
15228;SDS011;7717;47.792;12.076;2022-12-05T07:36:23;6.50;;;5.80;;
15228;SDS011;7717;47.792;12.076;2022-12-05T07:38:53;9.60;;;6.10;;
15228;SDS011;7717;47.792;12.076;2022-12-05T07:41:23;6.07;;;5.47;;
15228;SDS011;7717;47.792;12.076;2022-12-05T07:43:50;8.40;;;5.57;;
15228;SDS011;7717;47.792;12.076;2022-12-05T07:46:16;10.87;;;6.10;;
15228;SDS011;7717;47.792;12.076;2022-12-05T07:48:42;7.70;;;6.23;;
15228;SDS011;7717;47.792;12.076;2022-12-05T07:51:08;8.77;;;6.87;;
15228;SDS011;7717;47.792;12.076;2022-12-05T07:53:34;9.67;;;6.60;;
15228;SDS011;7717;47.792;12.076;2022-12-05T07:56:00;8.03;;;6.57;;
15228;SDS011;7717;47.792;12.076;2022-12-05T07:58:27;7.90;;;5.93;;
15228;SDS011;7717;47.792;12.076;2022-12-05T08:00:53;8.87;;;6.30;;
15228;SDS011;7717;47.792;12.076;2022-12-05T08:03:19;7.40;;;5.80;;
15228;SDS011;7717;47.792;12.076;2022-12-05T08:05:44;8.27;;;6.53;;
15228;SDS011;7717;47.792;12.076;2022-12-05T08:08:09;6.57;;;5.50;;
15228;SDS011;7717;47.792;12.076;2022-12-05T08:10:35;8.93;;;6.10;;
15228;SDS011;7717;47.792;12.076;2022-12-05T08:13:00;7.40;;;5.50;;
15228;SDS011;7717;47.792;12.076;2022-12-05T08:15:26;7.23;;;5.53;;
15228;SDS011;7717;47.792;12.076;2022-12-05T08:17:51;5.90;;;5.30;;
15228;SDS011;7717;47.792;12.076;2022-12-05T08:20:16;5.40;;;4.77;;
15228;SDS011;7717;47.792;12.076;2022-12-05T08:22:42;7.37;;;5.77;;
15228;SDS011;7717;47.792;12.076;2022-12-05T08:25:07;8.03;;;5.17;;
15228;SDS011;7717;47.792;12.076;2022-12-05T08:27:33;5.47;;;4.97;;
15228;SDS011;7717;47.792;12.076;2022-12-05T08:29:58;9.13;;;7.00;;
15228;SDS011;7717;47.792;12.076;2022-12-05T08:32:24;10.13;;;7.03;;
15228;SDS011;7717;47.792;12.076;2022-12-05T08:34:49;6.43;;;5.50;;
15228;SDS011;7717;47.792;12.076;2022-12-05T08:37:15;6.87;;;5.80;;
15228;SDS011;7717;47.792;12.076;2022-12-05T08:39:40;7.60;;;5.43;;
15228;SDS011;7717;47.792;12.076;2022-12-05T08:42:05;7.93;;;6.10;;
15228;SDS011;7717;47.792;12.076;2022-12-05T08:44:31;7.47;;;6.00;;
15228;SDS011;7717;47.792;12.076;2022-12-05T08:46:56;6.80;;;5.87;;
15228;SDS011;7717;47.792;12.076;2022-12-05T08:49:21;8.90;;;8.00;;
15228;SDS011;7717;47.792;12.076;2022-12-05T08:51:47;8.40;;;7.30;;
15228;SDS011;7717;47.792;12.076;2022-12-05T08:54:12;7.80;;;6.80;;
15228;SDS011;7717;47.792;12.076;2022-12-05T08:56:38;7.67;;;6.27;;
15228;SDS011;7717;47.792;12.076;2022-12-05T08:59:04;6.93;;;6.30;;
15228;SDS011;7717;47.792;12.076;2022-12-05T09:01:30;9.13;;;7.17;;
15228;SDS011;7717;47.792;12.076;2022-12-05T09:03:57;17.07;;;14.03;;
15228;SDS011;7717;47.792;12.076;2022-12-05T09:06:25;8.77;;;7.07;;
15228;SDS011;7717;47.792;12.076;2022-12-05T09:08:54;7.93;;;6.20;;
15228;SDS011;7717;47.792;12.076;2022-12-05T09:11:22;7.80;;;6.13;;
15228;SDS011;7717;47.792;12.076;2022-12-05T09:13:50;7.53;;;5.07;;
15228;SDS011;7717;47.792;12.076;2022-12-05T09:16:18;7.50;;;6.70;;
15228;SDS011;7717;47.792;12.076;2022-12-05T09:18:46;7.20;;;6.10;;
15228;SDS011;7717;47.792;12.076;2022-12-05T09:21:13;9.10;;;6.63;;
15228;SDS011;7717;47.792;12.076;2022-12-05T09:23:41;7.43;;;5.90;;
15228;SDS011;7717;47.792;12.076;2022-12-05T09:26:08;8.63;;;7.73;;
15228;SDS011;7717;47.792;12.076;2022-12-05T09:28:36;16.27;;;12.57;;
15228;SDS011;7717;47.792;12.076;2022-12-05T09:31:02;10.93;;;7.60;;
15228;SDS011;7717;47.792;12.076;2022-12-05T09:33:33;7.97;;;6.00;;
15228;SDS011;7717;47.792;12.076;2022-12-05T09:36:04;7.10;;;5.63;;
15228;SDS011;7717;47.792;12.076;2022-12-05T09:38:30;8.37;;;5.60;;
15228;SDS011;7717;47.792;12.076;2022-12-05T09:41:02;9.13;;;6.47;;
15228;SDS011;7717;47.792;12.076;2022-12-05T09:43:36;9.53;;;7.27;;
15228;SDS011;7717;47.792;12.076;2022-12-05T09:46:09;13.83;;;9.20;;
15228;SDS011;7717;47.792;12.076;2022-12-05T09:48:47;7.23;;;6.10;;
15228;SDS011;7717;47.792;12.076;2022-12-05T09:51:13;7.60;;;5.60;;
15228;SDS011;7717;47.792;12.076;2022-12-05T09:53:40;9.77;;;7.23;;
15228;SDS011;7717;47.792;12.076;2022-12-05T09:58:45;14.00;;;10.07;;
15228;SDS011;7717;47.792;12.076;2022-12-05T10:01:20;8.07;;;7.13;;
15228;SDS011;7717;47.792;12.076;2022-12-05T10:06:33;9.90;;;7.60;;
15228;SDS011;7717;47.792;12.076;2022-12-05T10:09:10;11.90;;;10.30;;
15228;SDS011;7717;47.792;12.076;2022-12-05T10:11:55;10.07;;;9.03;;
15228;SDS011;7717;47.792;12.076;2022-12-05T10:15:15;15.20;;;13.50;;
15228;SDS011;7717;47.792;12.076;2022-12-05T10:17:27;14.33;;;11.63;;
15228;SDS011;7717;47.792;12.076;2022-12-05T10:19:58;12.07;;;9.37;;
15228;SDS011;7717;47.792;12.076;2022-12-05T10:22:28;10.17;;;7.93;;
15228;SDS011;7717;47.792;12.076;2022-12-05T10:25:08;18.37;;;10.57;;
15228;SDS011;7717;47.792;12.076;2022-12-05T10:27:37;11.13;;;8.17;;
15228;SDS011;7717;47.792;12.076;2022-12-05T10:32:42;24.17;;;15.03;;
15228;SDS011;7717;47.792;12.076;2022-12-05T10:35:34;17.33;;;11.50;;
15228;SDS011;7717;47.792;12.076;2022-12-05T10:38:05;13.30;;;9.37;;
15228;SDS011;7717;47.792;12.076;2022-12-05T10:40:40;13.13;;;9.03;;
15228;SDS011;7717;47.792;12.076;2022-12-05T10:43:10;10.37;;;8.20;;
15228;SDS011;7717;47.792;12.076;2022-12-05T10:45:41;11.60;;;8.17;;
15228;SDS011;7717;47.792;12.076;2022-12-05T10:48:13;10.20;;;7.63;;
15228;SDS011;7717;47.792;12.076;2022-12-05T10:50:41;10.63;;;7.93;;
15228;SDS011;7717;47.792;12.076;2022-12-05T10:53:10;12.97;;;8.73;;
15228;SDS011;7717;47.792;12.076;2022-12-05T10:55:40;11.33;;;8.37;;
15228;SDS011;7717;47.792;12.076;2022-12-05T10:58:09;11.13;;;8.03;;
15228;SDS011;7717;47.792;12.076;2022-12-05T11:00:40;9.53;;;8.37;;
15228;SDS011;7717;47.792;12.076;2022-12-05T11:03:21;9.30;;;7.83;;
15228;SDS011;7717;47.792;12.076;2022-12-05T11:05:52;11.27;;;7.80;;
15228;SDS011;7717;47.792;12.076;2022-12-05T11:08:21;10.37;;;7.73;;
15228;SDS011;7717;47.792;12.076;2022-12-05T11:11:04;26.77;;;17.87;;
15228;SDS011;7717;47.792;12.076;2022-12-05T11:13:32;10.90;;;7.93;;
15228;SDS011;7717;47.792;12.076;2022-12-05T11:15:58;10.27;;;8.17;;
15228;SDS011;7717;47.792;12.076;2022-12-05T11:20:49;10.03;;;7.40;;
15228;SDS011;7717;47.792;12.076;2022-12-05T11:23:37;10.33;;;7.80;;
15228;SDS011;7717;47.792;12.076;2022-12-05T11:26:01;10.53;;;7.47;;
15228;SDS011;7717;47.792;12.076;2022-12-05T11:28:36;10.50;;;8.40;;
15228;SDS011;7717;47.792;12.076;2022-12-05T11:31:09;8.03;;;6.53;;
15228;SDS011;7717;47.792;12.076;2022-12-05T11:34:28;12.50;;;7.67;;
15228;SDS011;7717;47.792;12.076;2022-12-05T11:37:03;9.90;;;8.30;;
15228;SDS011;7717;47.792;12.076;2022-12-05T11:39:30;10.67;;;8.23;;
15228;SDS011;7717;47.792;12.076;2022-12-05T11:42:01;10.17;;;7.77;;
15228;SDS011;7717;47.792;12.076;2022-12-05T11:44:32;11.20;;;7.90;;
15228;SDS011;7717;47.792;12.076;2022-12-05T11:47:37;11.47;;;7.80;;
15228;SDS011;7717;47.792;12.076;2022-12-05T11:50:19;11.17;;;9.97;;
15228;SDS011;7717;47.792;12.076;2022-12-05T11:55:29;10.30;;;8.47;;
15228;SDS011;7717;47.792;12.076;2022-12-05T11:58:12;11.53;;;9.67;;
15228;SDS011;7717;47.792;12.076;2022-12-05T12:12:29;9.10;;;6.90;;
15228;SDS011;7717;47.792;12.076;2022-12-05T12:20:39;7.83;;;6.23;;
15228;SDS011;7717;47.792;12.076;2022-12-05T12:26:04;6.70;;;6.00;;
15228;SDS011;7717;47.792;12.076;2022-12-05T12:34:26;6.97;;;6.13;;
15228;SDS011;7717;47.792;12.076;2022-12-05T12:40:12;8.60;;;6.93;;
15228;SDS011;7717;47.792;12.076;2022-12-05T12:48:18;8.27;;;6.77;;
15228;SDS011;7717;47.792;12.076;2022-12-05T12:50:59;7.30;;;6.60;;
15228;SDS011;7717;47.792;12.076;2022-12-05T12:58:46;8.40;;;6.20;;
15228;SDS011;7717;47.792;12.076;2022-12-05T13:04:07;7.53;;;6.30;;
15228;SDS011;7717;47.792;12.076;2022-12-05T13:06:46;6.47;;;5.77;;
15228;SDS011;7717;47.792;12.076;2022-12-05T13:09:22;7.47;;;5.90;;
15228;SDS011;7717;47.792;12.076;2022-12-05T13:11:58;8.47;;;6.20;;
15228;SDS011;7717;47.792;12.076;2022-12-05T13:14:28;7.63;;;6.27;;
15228;SDS011;7717;47.792;12.076;2022-12-05T13:16:57;6.63;;;5.83;;
15228;SDS011;7717;47.792;12.076;2022-12-05T13:19:29;6.93;;;5.87;;
15228;SDS011;7717;47.792;12.076;2022-12-05T13:22:03;9.03;;;7.07;;
15228;SDS011;7717;47.792;12.076;2022-12-05T13:24:30;6.73;;;6.03;;
15228;SDS011;7717;47.792;12.076;2022-12-05T13:27:00;9.83;;;8.30;;
15228;SDS011;7717;47.792;12.076;2022-12-05T13:29:30;9.93;;;8.00;;
15228;SDS011;7717;47.792;12.076;2022-12-05T13:32:00;8.20;;;7.07;;
15228;SDS011;7717;47.792;12.076;2022-12-05T13:36:56;15.63;;;10.23;;
15228;SDS011;7717;47.792;12.076;2022-12-05T13:39:41;11.83;;;8.63;;
15228;SDS011;7717;47.792;12.076;2022-12-05T13:42:34;7.17;;;6.23;;
15228;SDS011;7717;47.792;12.076;2022-12-05T13:47:30;6.73;;;5.27;;
15228;SDS011;7717;47.792;12.076;2022-12-05T13:50:09;7.23;;;6.00;;
15228;SDS011;7717;47.792;12.076;2022-12-05T13:52:51;9.83;;;6.23;;
15228;SDS011;7717;47.792;12.076;2022-12-05T13:55:30;30.97;;;16.60;;
15228;SDS011;7717;47.792;12.076;2022-12-05T13:58:02;11.57;;;6.90;;
15228;SDS011;7717;47.792;12.076;2022-12-05T14:00:48;10.30;;;6.90;;
15228;SDS011;7717;47.792;12.076;2022-12-05T14:05:52;8.67;;;6.83;;
15228;SDS011;7717;47.792;12.076;2022-12-05T14:15:43;8.47;;;6.27;;
15228;SDS011;7717;47.792;12.076;2022-12-05T14:26:25;17.83;;;11.10;;
15228;SDS011;7717;47.792;12.076;2022-12-05T14:35:17;7.53;;;6.33;;
15228;SDS011;7717;47.792;12.076;2022-12-05T14:37:52;7.60;;;6.23;;
15228;SDS011;7717;47.792;12.076;2022-12-05T14:40:23;6.20;;;5.13;;
15228;SDS011;7717;47.792;12.076;2022-12-05T14:45:52;10.77;;;7.10;;
15228;SDS011;7717;47.792;12.076;2022-12-05T14:48:30;9.60;;;6.80;;
15228;SDS011;7717;47.792;12.076;2022-12-05T14:50:57;9.67;;;6.40;;
15228;SDS011;7717;47.792;12.076;2022-12-05T15:01:07;3.60;;;2.80;;
15228;SDS011;7717;47.792;12.076;2022-12-05T15:03:38;5.33;;;2.73;;
15228;SDS011;7717;47.792;12.076;2022-12-05T15:06:09;4.90;;;2.67;;
15228;SDS011;7717;47.792;12.076;2022-12-05T15:08:43;9.27;;;5.67;;
15228;SDS011;7717;47.792;12.076;2022-12-05T15:11:18;7.60;;;4.60;;
15228;SDS011;7717;47.792;12.076;2022-12-05T15:16:33;5.10;;;3.90;;
15228;SDS011;7717;47.792;12.076;2022-12-05T15:19:05;6.60;;;4.77;;
15228;SDS011;7717;47.792;12.076;2022-12-05T15:21:38;5.43;;;4.03;;
15228;SDS011;7717;47.792;12.076;2022-12-05T15:26:40;5.20;;;3.40;;
15228;SDS011;7717;47.792;12.076;2022-12-05T15:29:11;3.80;;;2.60;;
15228;SDS011;7717;47.792;12.076;2022-12-05T15:34:54;3.50;;;2.80;;
15228;SDS011;7717;47.792;12.076;2022-12-05T15:37:15;1.10;;;0.97;;
15228;SDS011;7717;47.792;12.076;2022-12-05T15:42:17;1.50;;;1.13;;
15228;SDS011;7717;47.792;12.076;2022-12-05T15:44:44;2.00;;;1.60;;
15228;SDS011;7717;47.792;12.076;2022-12-05T15:47:23;1.63;;;1.53;;
15228;SDS011;7717;47.792;12.076;2022-12-05T15:49:50;2.70;;;1.83;;
15228;SDS011;7717;47.792;12.076;2022-12-05T15:54:58;1.23;;;1.13;;
15228;SDS011;7717;47.792;12.076;2022-12-05T15:57:34;3.17;;;2.40;;
15228;SDS011;7717;47.792;12.076;2022-12-05T16:00:05;1.60;;;1.40;;
15228;SDS011;7717;47.792;12.076;2022-12-05T16:05:18;1.97;;;1.60;;
15228;SDS011;7717;47.792;12.076;2022-12-05T16:07:46;1.27;;;1.17;;
15228;SDS011;7717;47.792;12.076;2022-12-05T16:10:14;1.83;;;1.50;;
15228;SDS011;7717;47.792;12.076;2022-12-05T16:12:40;4.00;;;3.53;;
15228;SDS011;7717;47.792;12.076;2022-12-05T16:15:09;3.87;;;3.30;;
15228;SDS011;7717;47.792;12.076;2022-12-05T16:17:44;2.30;;;2.07;;
15228;SDS011;7717;47.792;12.076;2022-12-05T16:22:48;31.73;;;20.33;;
15228;SDS011;7717;47.792;12.076;2022-12-05T16:25:20;8.50;;;5.63;;
15228;SDS011;7717;47.792;12.076;2022-12-05T16:27:55;5.63;;;4.70;;
15228;SDS011;7717;47.792;12.076;2022-12-05T16:30:25;8.83;;;6.40;;
15228;SDS011;7717;47.792;12.076;2022-12-05T16:33:05;7.67;;;5.93;;
15228;SDS011;7717;47.792;12.076;2022-12-05T16:35:41;14.20;;;9.80;;
15228;SDS011;7717;47.792;12.076;2022-12-05T16:43:16;4.93;;;4.37;;
15228;SDS011;7717;47.792;12.076;2022-12-05T16:45:49;1.47;;;1.30;;
15228;SDS011;7717;47.792;12.076;2022-12-05T16:48:20;1.53;;;1.43;;
15228;SDS011;7717;47.792;12.076;2022-12-05T16:53:50;1.43;;;1.17;;
15228;SDS011;7717;47.792;12.076;2022-12-05T16:56:21;0.93;;;0.93;;
15228;SDS011;7717;47.792;12.076;2022-12-05T16:58:50;1.63;;;1.00;;
15228;SDS011;7717;47.792;12.076;2022-12-05T17:01:20;0.70;;;0.70;;
15228;SDS011;7717;47.792;12.076;2022-12-05T17:03:47;1.20;;;1.10;;
15228;SDS011;7717;47.792;12.076;2022-12-05T17:06:12;0.80;;;0.80;;
15228;SDS011;7717;47.792;12.076;2022-12-05T17:08:39;0.80;;;0.80;;
15228;SDS011;7717;47.792;12.076;2022-12-05T17:11:07;1.33;;;1.30;;
15228;SDS011;7717;47.792;12.076;2022-12-05T17:13:38;1.63;;;1.53;;
15228;SDS011;7717;47.792;12.076;2022-12-05T17:16:04;1.70;;;1.60;;
15228;SDS011;7717;47.792;12.076;2022-12-05T17:18:29;1.57;;;1.47;;
15228;SDS011;7717;47.792;12.076;2022-12-05T17:20:55;2.00;;;1.70;;
15228;SDS011;7717;47.792;12.076;2022-12-05T17:23:24;1.90;;;1.80;;
15228;SDS011;7717;47.792;12.076;2022-12-05T17:25:50;2.10;;;2.00;;
15228;SDS011;7717;47.792;12.076;2022-12-05T17:28:18;5.77;;;3.57;;
15228;SDS011;7717;47.792;12.076;2022-12-05T17:30:43;1.70;;;1.60;;
15228;SDS011;7717;47.792;12.076;2022-12-05T17:33:10;1.20;;;1.20;;
15228;SDS011;7717;47.792;12.076;2022-12-05T17:35:36;1.53;;;1.43;;
15228;SDS011;7717;47.792;12.076;2022-12-05T17:38:03;1.33;;;1.23;;